sensor_id;sensor_type;location;lat;lon;timestamp;pressure;altitude;pressure_sealevel;temperature;humidity
69247;BME280;56358;56.328;43.992;2023-08-21T00:01:07;100470.31;;;15.61;89.88
69247;BME280;56358;56.328;43.992;2023-08-21T00:03:07;100426.28;;;15.33;89.75
69247;BME280;56358;56.328;43.992;2023-08-21T00:05:08;100394.31;;;15.10;90.07
69247;BME280;56358;56.328;43.992;2023-08-21T00:07:09;100488.47;;;15.69;89.64
69247;BME280;56358;56.328;43.992;2023-08-21T00:09:11;100480.81;;;15.64;89.50
69247;BME280;56358;56.328;43.992;2023-08-21T00:11:12;100431.38;;;15.36;90.04
69247;BME280;56358;56.328;43.992;2023-08-21T00:13:13;100437.63;;;15.36;89.63
69247;BME280;56358;56.328;43.992;2023-08-21T00:15:13;100488.47;;;15.69;89.19
69247;BME280;56358;56.328;43.992;2023-08-21T00:17:14;100491.19;;;15.69;89.43
69247;BME280;56358;56.328;43.992;2023-08-21T00:19:15;100446.28;;;15.40;89.26
69247;BME280;56358;56.328;43.992;2023-08-21T00:21:16;100491.19;;;15.69;89.38
69247;BME280;56358;56.328;43.992;2023-08-21T00:23:16;100503.81;;;15.68;88.96
69247;BME280;56358;56.328;43.992;2023-08-21T00:25:17;100498.19;;;15.62;89.04
69247;BME280;56358;56.328;43.992;2023-08-21T00:27:18;100492.34;;;15.66;89.15
69247;BME280;56358;56.328;43.992;2023-08-21T00:29:18;100428.28;;;15.31;89.08
69247;BME280;56358;56.328;43.992;2023-08-21T00:31:19;100489.63;;;15.66;88.76
69247;BME280;56358;56.328;43.992;2023-08-21T00:33:19;100479.03;;;15.55;88.12
69247;BME280;56358;56.328;43.992;2023-08-21T00:35:20;100490.94;;;15.62;87.89
69247;BME280;56358;56.328;43.992;2023-08-21T00:37:21;100432.28;;;15.27;89.14
69247;BME280;56358;56.328;43.992;2023-08-21T00:39:22;100414.75;;;15.13;87.77
69247;BME280;56358;56.328;43.992;2023-08-21T00:41:22;100404.81;;;15.13;87.69
69247;BME280;56358;56.328;43.992;2023-08-21T00:43:23;100487.44;;;15.52;88.58
69247;BME280;56358;56.328;43.992;2023-08-21T00:45:24;100484.44;;;15.55;88.42
69247;BME280;56358;56.328;43.992;2023-08-21T00:47:25;100484.44;;;15.55;88.63
69247;BME280;56358;56.328;43.992;2023-08-21T00:49:26;100480.91;;;15.54;88.41
69247;BME280;56358;56.328;43.992;2023-08-21T00:51:28;100481.88;;;15.53;88.66
69247;BME280;56358;56.328;43.992;2023-08-21T00:53:29;100472.00;;;15.44;88.25
69247;BME280;56358;56.328;43.992;2023-08-21T00:55:31;100484.91;;;15.50;88.31
69247;BME280;56358;56.328;43.992;2023-08-21T00:57:32;100486.72;;;15.50;88.54
69247;BME280;56358;56.328;43.992;2023-08-21T00:59:33;100484.34;;;15.47;88.00
69247;BME280;56358;56.328;43.992;2023-08-21T01:01:35;100420.06;;;15.04;88.39
69247;BME280;56358;56.328;43.992;2023-08-21T01:03:36;100483.66;;;15.45;88.72
69247;BME280;56358;56.328;43.992;2023-08-21T01:05:37;100471.31;;;15.42;88.96
69247;BME280;56358;56.328;43.992;2023-08-21T01:07:51;100472.63;;;15.38;88.57
69247;BME280;56358;56.328;43.992;2023-08-21T01:10:16;100482.63;;;15.46;88.93
69247;BME280;56358;56.328;43.992;2023-08-21T01:14:29;100487.75;;;15.49;88.77
69247;BME280;56358;56.328;43.992;2023-08-21T01:16:31;100428.09;;;15.14;88.58
69247;BME280;56358;56.328;43.992;2023-08-21T01:18:33;100488.03;;;15.46;88.48
69247;BME280;56358;56.328;43.992;2023-08-21T01:20:35;100472.31;;;15.41;88.16
69247;BME280;56358;56.328;43.992;2023-08-21T01:22:37;100487.91;;;15.47;88.29
69247;BME280;56358;56.328;43.992;2023-08-21T01:24:39;100492.59;;;15.45;88.39
69247;BME280;56358;56.328;43.992;2023-08-21T01:26:39;100489.34;;;15.41;88.20
69247;BME280;56358;56.328;43.992;2023-08-21T01:28:40;100488.66;;;15.39;88.01
69247;BME280;56358;56.328;43.992;2023-08-21T01:30:41;100502.31;;;15.38;88.20
69247;BME280;56358;56.328;43.992;2023-08-21T01:34:43;100492.44;;;15.29;88.61
69247;BME280;56358;56.328;43.992;2023-08-21T01:36:46;100496.53;;;15.33;88.76
69247;BME280;56358;56.328;43.992;2023-08-21T01:38:47;100498.09;;;15.25;88.33
69247;BME280;56358;56.328;43.992;2023-08-21T01:40:48;100502.34;;;15.28;88.47
69247;BME280;56358;56.328;43.992;2023-08-21T01:42:48;100505.94;;;15.29;89.01
69247;BME280;56358;56.328;43.992;2023-08-21T01:44:49;100509.47;;;15.29;88.89
69247;BME280;56358;56.328;43.992;2023-08-21T01:46:50;100515.59;;;15.31;88.96
69247;BME280;56358;56.328;43.992;2023-08-21T01:48:51;100480.25;;;15.15;88.80
69247;BME280;56358;56.328;43.992;2023-08-21T01:50:52;100519.72;;;15.25;88.61
69247;BME280;56358;56.328;43.992;2023-08-21T01:52:54;100516.56;;;15.30;88.46
69247;BME280;56358;56.328;43.992;2023-08-21T01:54:55;100511.91;;;15.22;88.77
69247;BME280;56358;56.328;43.992;2023-08-21T01:56:56;100519.28;;;15.30;88.27
69247;BME280;56358;56.328;43.992;2023-08-21T01:58:57;100522.13;;;15.29;88.42
69247;BME280;56358;56.328;43.992;2023-08-21T02:00:58;100500.56;;;15.19;88.27
69247;BME280;56358;56.328;43.992;2023-08-21T02:02:58;100523.81;;;15.30;88.64
69247;BME280;56358;56.328;43.992;2023-08-21T02:04:59;100502.25;;;15.20;87.81
69247;BME280;56358;56.328;43.992;2023-08-21T02:07:00;100518.72;;;15.27;88.55
69247;BME280;56358;56.328;43.992;2023-08-21T02:09:01;100506.50;;;15.22;88.36
69247;BME280;56358;56.328;43.992;2023-08-21T02:11:02;100523.22;;;15.36;88.52
69247;BME280;56358;56.328;43.992;2023-08-21T02:13:03;100531.16;;;15.37;88.72
69247;BME280;56358;56.328;43.992;2023-08-21T02:15:04;100463.69;;;15.00;87.68
69247;BME280;56358;56.328;43.992;2023-08-21T02:17:06;100480.47;;;15.03;87.75
69247;BME280;56358;56.328;43.992;2023-08-21T02:19:06;100533.47;;;15.32;88.33
69247;BME280;56358;56.328;43.992;2023-08-21T02:21:07;100479.34;;;14.96;88.34
69247;BME280;56358;56.328;43.992;2023-08-21T02:23:08;100529.94;;;15.32;88.21
69247;BME280;56358;56.328;43.992;2023-08-21T02:25:08;100480.19;;;14.97;88.19
69247;BME280;56358;56.328;43.992;2023-08-21T02:27:09;100539.88;;;15.31;87.87
69247;BME280;56358;56.328;43.992;2023-08-21T02:29:10;100483.06;;;14.95;87.22
69247;BME280;56358;56.328;43.992;2023-08-21T02:31:11;100546.59;;;15.27;87.48
69247;BME280;56358;56.328;43.992;2023-08-21T02:33:12;100538.09;;;15.22;87.52
69247;BME280;56358;56.328;43.992;2023-08-21T02:35:13;100545.03;;;15.24;87.71
69247;BME280;56358;56.328;43.992;2023-08-21T02:37:14;100548.56;;;15.25;87.81
69247;BME280;56358;56.328;43.992;2023-08-21T02:39:14;100547.88;;;15.23;87.12
69247;BME280;56358;56.328;43.992;2023-08-21T02:41:15;100538.34;;;15.19;86.98
69247;BME280;56358;56.328;43.992;2023-08-21T02:43:16;100539.91;;;15.21;87.65
69247;BME280;56358;56.328;43.992;2023-08-21T02:45:17;100547.19;;;15.21;87.07
69247;BME280;56358;56.328;43.992;2023-08-21T02:47:19;100543.06;;;15.17;86.97
69247;BME280;56358;56.328;43.992;2023-08-21T02:49:20;100546.63;;;15.17;87.75
69247;BME280;56358;56.328;43.992;2023-08-21T02:51:21;100544.38;;;15.13;86.99
69247;BME280;56358;56.328;43.992;2023-08-21T02:53:22;100553.16;;;15.15;87.34
69247;BME280;56358;56.328;43.992;2023-08-21T02:55:22;100481.84;;;14.70;87.42
69247;BME280;56358;56.328;43.992;2023-08-21T02:57:24;100550.91;;;15.10;86.70
69247;BME280;56358;56.328;43.992;2023-08-21T02:59:25;100494.88;;;14.74;86.54
69247;BME280;56358;56.328;43.992;2023-08-21T03:01:26;100556.06;;;15.03;87.05
69247;BME280;56358;56.328;43.992;2023-08-21T03:03:27;100560.88;;;15.00;87.46
69247;BME280;56358;56.328;43.992;2023-08-21T03:05:27;100555.34;;;15.01;87.68
69247;BME280;56358;56.328;43.992;2023-08-21T03:07:28;100544.84;;;14.98;88.96
69247;BME280;56358;56.328;43.992;2023-08-21T03:09:29;100538.13;;;15.02;87.63
69247;BME280;56358;56.328;43.992;2023-08-21T03:11:29;100492.09;;;14.66;87.76
69247;BME280;56358;56.328;43.992;2023-08-21T03:13:30;100552.78;;;15.00;87.14
69247;BME280;56358;56.328;43.992;2023-08-21T03:15:31;100555.38;;;14.91;87.12
69247;BME280;56358;56.328;43.992;2023-08-21T03:17:31;100552.66;;;14.91;88.32
69247;BME280;56358;56.328;43.992;2023-08-21T03:19:32;100558.22;;;14.90;87.91
69247;BME280;56358;56.328;43.992;2023-08-21T03:21:33;100543.88;;;14.80;88.31
69247;BME280;56358;56.328;43.992;2023-08-21T03:23:33;100556.66;;;14.87;88.33
69247;BME280;56358;56.328;43.992;2023-08-21T03:25:34;100553.81;;;14.89;88.36
69247;BME280;56358;56.328;43.992;2023-08-21T03:27:35;100491.97;;;14.48;87.31
69247;BME280;56358;56.328;43.992;2023-08-21T03:29:39;100554.94;;;14.86;87.96
69247;BME280;56358;56.328;43.992;2023-08-21T03:31:40;100515.06;;;14.61;88.00
69247;BME280;56358;56.328;43.992;2023-08-21T03:33:41;100527.69;;;14.80;88.05
69247;BME280;56358;56.328;43.992;2023-08-21T03:35:42;100551.94;;;14.89;88.20
69247;BME280;56358;56.328;43.992;2023-08-21T03:37:42;100531.69;;;14.75;86.86
69247;BME280;56358;56.328;43.992;2023-08-21T03:39:43;100510.66;;;14.59;87.23
69247;BME280;56358;56.328;43.992;2023-08-21T03:41:44;100563.91;;;14.87;87.41
69247;BME280;56358;56.328;43.992;2023-08-21T03:43:44;100548.97;;;14.93;87.19
69247;BME280;56358;56.328;43.992;2023-08-21T03:45:45;100544.56;;;14.91;87.19
69247;BME280;56358;56.328;43.992;2023-08-21T03:47:45;100537.19;;;14.84;86.44
69247;BME280;56358;56.328;43.992;2023-08-21T03:49:46;100424.28;;;14.22;86.53
69247;BME280;56358;56.328;43.992;2023-08-21T03:51:48;100552.38;;;15.04;86.54
69247;BME280;56358;56.328;43.992;2023-08-21T03:53:49;100558.75;;;15.03;85.79
69247;BME280;56358;56.328;43.992;2023-08-21T03:55:50;100552.22;;;15.06;85.69
69247;BME280;56358;56.328;43.992;2023-08-21T03:57:51;100551.22;;;15.07;86.25
69247;BME280;56358;56.328;43.992;2023-08-21T03:59:52;100550.94;;;15.00;86.11
69247;BME280;56358;56.328;43.992;2023-08-21T04:01:53;100548.91;;;15.12;85.82
69247;BME280;56358;56.328;43.992;2023-08-21T04:03:54;100550.34;;;15.06;85.60
69247;BME280;56358;56.328;43.992;2023-08-21T04:05:54;100487.66;;;14.75;84.85
69247;BME280;56358;56.328;43.992;2023-08-21T04:07:57;100451.63;;;14.56;84.46
69247;BME280;56358;56.328;43.992;2023-08-21T04:09:57;100572.94;;;15.15;83.56
69247;BME280;56358;56.328;43.992;2023-08-21T04:11:58;100560.97;;;15.18;83.95
69247;BME280;56358;56.328;43.992;2023-08-21T04:13:59;100562.97;;;15.16;83.40
69247;BME280;56358;56.328;43.992;2023-08-21T04:15:59;100567.53;;;15.15;82.84
69247;BME280;56358;56.328;43.992;2023-08-21T04:18:00;100561.25;;;15.15;83.30
69247;BME280;56358;56.328;43.992;2023-08-21T04:20:00;100563.69;;;15.18;82.42
69247;BME280;56358;56.328;43.992;2023-08-21T04:22:02;100562.81;;;15.17;81.39
69247;BME280;56358;56.328;43.992;2023-08-21T04:24:03;100583.44;;;15.18;82.33
69247;BME280;56358;56.328;43.992;2023-08-21T04:26:04;100574.50;;;15.18;81.79
69247;BME280;56358;56.328;43.992;2023-08-21T04:28:05;100571.06;;;15.16;81.99
69247;BME280;56358;56.328;43.992;2023-08-21T04:30:09;100566.81;;;15.13;81.36
69247;BME280;56358;56.328;43.992;2023-08-21T04:32:09;100509.38;;;14.83;80.42
69247;BME280;56358;56.328;43.992;2023-08-21T04:34:10;100569.63;;;15.21;81.18
69247;BME280;56358;56.328;43.992;2023-08-21T04:36:18;100574.19;;;15.21;80.79
69247;BME280;56358;56.328;43.992;2023-08-21T04:38:18;100568.06;;;15.19;80.99
69247;BME280;56358;56.328;43.992;2023-08-21T04:40:19;100572.94;;;15.15;80.03
69247;BME280;56358;56.328;43.992;2023-08-21T04:42:22;100572.94;;;15.15;80.18
69247;BME280;56358;56.328;43.992;2023-08-21T04:44:23;100576.47;;;15.16;80.55
69247;BME280;56358;56.328;43.992;2023-08-21T04:46:23;100566.25;;;15.09;79.73
69247;BME280;56358;56.328;43.992;2023-08-21T04:48:24;100542.28;;;14.97;79.71
69247;BME280;56358;56.328;43.992;2023-08-21T04:50:25;100530.09;;;14.93;79.99
69247;BME280;56358;56.328;43.992;2023-08-21T04:52:26;100566.91;;;15.21;79.12
69247;BME280;56358;56.328;43.992;2023-08-21T04:54:27;100558.91;;;15.30;79.23
69247;BME280;56358;56.328;43.992;2023-08-21T04:56:27;100565.81;;;15.52;79.57
69247;BME280;56358;56.328;43.992;2023-08-21T04:58:28;100562.34;;;15.59;79.09
69247;BME280;56358;56.328;43.992;2023-08-21T05:00:29;100540.44;;;15.63;78.73
69247;BME280;56358;56.328;43.992;2023-08-21T05:02:30;100476.00;;;15.40;78.47
69247;BME280;56358;56.328;43.992;2023-08-21T05:04:30;100576.97;;;16.13;77.54
69247;BME280;56358;56.328;43.992;2023-08-21T05:06:31;100575.81;;;16.15;75.96
69247;BME280;56358;56.328;43.992;2023-08-21T05:08:32;100571.69;;;16.21;77.01
69247;BME280;56358;56.328;43.992;2023-08-21T05:10:33;100578.63;;;16.41;76.47
69247;BME280;56358;56.328;43.992;2023-08-21T05:12:34;100496.66;;;16.05;76.32
69247;BME280;56358;56.328;43.992;2023-08-21T05:14:35;100568.38;;;16.71;75.96
69247;BME280;56358;56.328;43.992;2023-08-21T05:16:37;100571.34;;;16.86;75.38
69247;BME280;56358;56.328;43.992;2023-08-21T05:18:37;100572.88;;;16.89;75.48
69247;BME280;56358;56.328;43.992;2023-08-21T05:20:38;100576.50;;;16.89;73.76
69247;BME280;56358;56.328;43.992;2023-08-21T05:22:39;100572.53;;;16.84;74.47
69247;BME280;56358;56.328;43.992;2023-08-21T05:24:40;100581.34;;;16.86;73.98
69247;BME280;56358;56.328;43.992;2023-08-21T05:26:41;100584.63;;;16.89;74.09
69247;BME280;56358;56.328;43.992;2023-08-21T05:28:41;100574.16;;;16.95;73.71
69247;BME280;56358;56.328;43.992;2023-08-21T05:30:42;100574.69;;;16.98;72.96
69247;BME280;56358;56.328;43.992;2023-08-21T05:32:43;100580.94;;;17.25;72.77
69247;BME280;56358;56.328;43.992;2023-08-21T05:34:43;100585.97;;;17.46;72.22
69247;BME280;56358;56.328;43.992;2023-08-21T05:36:45;100579.53;;;17.47;71.26
69247;BME280;56358;56.328;43.992;2023-08-21T05:38:46;100603.97;;;17.55;70.43
69247;BME280;56358;56.328;43.992;2023-08-21T05:40:48;100591.56;;;17.53;71.17
69247;BME280;56358;56.328;43.992;2023-08-21T05:42:49;100594.09;;;17.46;72.00
69247;BME280;56358;56.328;43.992;2023-08-21T05:44:50;100593.41;;;17.44;71.81
69247;BME280;56358;56.328;43.992;2023-08-21T05:46:50;100594.63;;;17.23;71.19
69247;BME280;56358;56.328;43.992;2023-08-21T05:48:52;100598.06;;;17.25;71.65
69247;BME280;56358;56.328;43.992;2023-08-21T05:50:53;100602.59;;;17.25;72.26
69247;BME280;56358;56.328;43.992;2023-08-21T05:52:54;100598.06;;;17.25;71.38
69247;BME280;56358;56.328;43.992;2023-08-21T05:54:55;100551.47;;;16.96;71.31
69247;BME280;56358;56.328;43.992;2023-08-21T05:56:55;100600.34;;;17.12;70.56
69247;BME280;56358;56.328;43.992;2023-08-21T05:58:56;100594.72;;;17.05;71.73
69247;BME280;56358;56.328;43.992;2023-08-21T06:00:57;100598.81;;;17.09;71.01
69247;BME280;56358;56.328;43.992;2023-08-21T06:02:58;100602.72;;;17.15;70.66
69247;BME280;56358;56.328;43.992;2023-08-21T06:04:59;100600.56;;;17.19;70.78
69247;BME280;56358;56.328;43.992;2023-08-21T06:06:59;100597.31;;;17.15;70.84
69247;BME280;56358;56.328;43.992;2023-08-21T06:09:00;100608.19;;;17.23;69.99
69247;BME280;56358;56.328;43.992;2023-08-21T06:11:01;100598.84;;;17.18;69.44
69247;BME280;56358;56.328;43.992;2023-08-21T06:13:02;100559.09;;;16.92;68.89
69247;BME280;56358;56.328;43.992;2023-08-21T06:15:03;100601.03;;;17.14;68.53
69247;BME280;56358;56.328;43.992;2023-08-21T06:17:05;100605.44;;;17.15;69.54
69247;BME280;56358;56.328;43.992;2023-08-21T06:19:06;100608.69;;;17.19;69.55
69247;BME280;56358;56.328;43.992;2023-08-21T06:21:07;100593.25;;;17.19;69.53
69247;BME280;56358;56.328;43.992;2023-08-21T06:23:07;100604.31;;;17.26;69.03
69247;BME280;56358;56.328;43.992;2023-08-21T06:25:08;100586.38;;;17.33;67.79
69247;BME280;56358;56.328;43.992;2023-08-21T06:27:09;100603.63;;;17.58;67.28
69247;BME280;56358;56.328;43.992;2023-08-21T06:29:09;100604.38;;;17.77;66.90
69247;BME280;56358;56.328;43.992;2023-08-21T06:31:10;100601.97;;;18.08;66.89
69247;BME280;56358;56.328;43.992;2023-08-21T06:33:11;100536.34;;;17.97;65.45
69247;BME280;56358;56.328;43.992;2023-08-21T06:35:11;100583.88;;;18.42;65.64
69247;BME280;56358;56.328;43.992;2023-08-21T06:37:12;100611.72;;;18.61;65.06
69247;BME280;56358;56.328;43.992;2023-08-21T06:39:13;100598.66;;;18.56;65.27
69247;BME280;56358;56.328;43.992;2023-08-21T06:41:14;100607.81;;;18.55;65.45
69247;BME280;56358;56.328;43.992;2023-08-21T06:43:14;100611.69;;;18.44;65.65
69247;BME280;56358;56.328;43.992;2023-08-21T06:45:15;100616.09;;;18.29;66.27
69247;BME280;56358;56.328;43.992;2023-08-21T06:47:16;100615.22;;;18.12;66.18
69247;BME280;56358;56.328;43.992;2023-08-21T06:49:17;100604.75;;;17.90;66.39
69247;BME280;56358;56.328;43.992;2023-08-21T06:51:18;100616.59;;;17.81;67.04
69247;BME280;56358;56.328;43.992;2023-08-21T06:53:18;100624.09;;;17.87;67.38
69247;BME280;56358;56.328;43.992;2023-08-21T06:55:19;100629.84;;;17.84;67.01
69247;BME280;56358;56.328;43.992;2023-08-21T06:57:20;100624.06;;;17.79;67.34
69247;BME280;56358;56.328;43.992;2023-08-21T06:59:20;100610.69;;;17.86;67.30
69247;BME280;56358;56.328;43.992;2023-08-21T07:01:21;100632.66;;;18.09;66.65
69247;BME280;56358;56.328;43.992;2023-08-21T07:03:22;100619.81;;;18.28;65.28
69247;BME280;56358;56.328;43.992;2023-08-21T07:05:23;100609.50;;;18.39;64.22
69247;BME280;56358;56.328;43.992;2023-08-21T07:07:24;100620.19;;;18.66;64.13
69247;BME280;56358;56.328;43.992;2023-08-21T07:09:25;100611.91;;;18.75;63.30
69247;BME280;56358;56.328;43.992;2023-08-21T07:11:26;100614.44;;;18.93;63.21
69247;BME280;56358;56.328;43.992;2023-08-21T07:13:26;100609.16;;;19.08;62.54
69247;BME280;56358;56.328;43.992;2023-08-21T07:15:29;100618.97;;;19.34;61.90
69247;BME280;56358;56.328;43.992;2023-08-21T07:17:29;100610.44;;;19.46;59.50
69247;BME280;56358;56.328;43.992;2023-08-21T07:19:30;100636.03;;;19.59;58.41
69247;BME280;56358;56.328;43.992;2023-08-21T07:21:31;100623.94;;;19.70;58.33
69247;BME280;56358;56.328;43.992;2023-08-21T07:23:32;100614.28;;;19.68;57.98
69247;BME280;56358;56.328;43.992;2023-08-21T07:25:33;100617.66;;;19.70;57.20
69247;BME280;56358;56.328;43.992;2023-08-21T07:27:34;100627.53;;;19.71;56.73
69247;BME280;56358;56.328;43.992;2023-08-21T07:29:34;100633.94;;;19.86;56.12
69247;BME280;56358;56.328;43.992;2023-08-21T07:31:35;100629.53;;;19.85;55.44
69247;BME280;56358;56.328;43.992;2023-08-21T07:33:35;100613.22;;;19.85;55.64
69247;BME280;56358;56.328;43.992;2023-08-21T07:35:36;100618.28;;;19.88;55.90
69247;BME280;56358;56.328;43.992;2023-08-21T07:37:37;100615.03;;;19.93;56.03
69247;BME280;56358;56.328;43.992;2023-08-21T07:39:38;100624.66;;;20.04;55.07
69247;BME280;56358;56.328;43.992;2023-08-21T07:41:38;100560.59;;;19.62;54.49
69247;BME280;56358;56.328;43.992;2023-08-21T07:43:43;100567.38;;;19.66;55.63
69247;BME280;56358;56.328;43.992;2023-08-21T07:45:44;100628.94;;;19.98;54.76
69247;BME280;56358;56.328;43.992;2023-08-21T07:47:45;100607.00;;;20.00;55.16
69247;BME280;56358;56.328;43.992;2023-08-21T07:49:45;100622.06;;;20.10;54.68
69247;BME280;56358;56.328;43.992;2023-08-21T07:51:46;100612.25;;;20.09;54.28
69247;BME280;56358;56.328;43.992;2023-08-21T07:53:47;100570.91;;;19.83;53.95
69247;BME280;56358;56.328;43.992;2023-08-21T07:55:47;100580.84;;;19.99;53.35
69247;BME280;56358;56.328;43.992;2023-08-21T07:57:48;100615.22;;;20.23;53.47
69247;BME280;56358;56.328;43.992;2023-08-21T07:59:49;100603.47;;;20.22;52.19
69247;BME280;56358;56.328;43.992;2023-08-21T08:01:49;100606.31;;;20.29;51.48
69247;BME280;56358;56.328;43.992;2023-08-21T08:03:50;100614.72;;;20.42;51.04
69247;BME280;56358;56.328;43.992;2023-08-21T08:05:51;100549.09;;;20.14;50.74
69247;BME280;56358;56.328;43.992;2023-08-21T08:07:52;100612.03;;;20.66;50.14
69247;BME280;56358;56.328;43.992;2023-08-21T08:09:52;100615.47;;;20.83;50.44
69247;BME280;56358;56.328;43.992;2023-08-21T08:11:53;100602.16;;;20.88;49.43
69247;BME280;56358;56.328;43.992;2023-08-21T08:13:54;100545.25;;;20.47;49.73
69247;BME280;56358;56.328;43.992;2023-08-21T08:15:55;100564.56;;;20.60;49.54
69247;BME280;56358;56.328;43.992;2023-08-21T08:17:57;100600.31;;;20.80;49.91
69247;BME280;56358;56.328;43.992;2023-08-21T08:19:58;100602.97;;;20.65;49.56
69247;BME280;56358;56.328;43.992;2023-08-21T08:21:58;100576.16;;;20.39;49.84
69247;BME280;56358;56.328;43.992;2023-08-21T08:23:59;100595.47;;;20.44;50.44
69247;BME280;56358;56.328;43.992;2023-08-21T08:26:00;100603.72;;;20.36;50.38
69247;BME280;56358;56.328;43.992;2023-08-21T08:28:00;100591.19;;;20.26;50.85
69247;BME280;56358;56.328;43.992;2023-08-21T08:30:01;100591.16;;;20.03;50.17
69247;BME280;56358;56.328;43.992;2023-08-21T08:32:05;100613.81;;;19.96;50.75
69247;BME280;56358;56.328;43.992;2023-08-21T08:34:06;100601.75;;;19.98;50.93
69247;BME280;56358;56.328;43.992;2023-08-21T08:36:08;100595.91;;;20.09;51.19
69247;BME280;56358;56.328;43.992;2023-08-21T08:38:09;100582.91;;;20.20;51.21
69247;BME280;56358;56.328;43.992;2023-08-21T08:40:12;100603.78;;;20.51;50.69
69247;BME280;56358;56.328;43.992;2023-08-21T08:42:14;100593.25;;;20.71;49.88
69247;BME280;56358;56.328;43.992;2023-08-21T08:44:15;100592.56;;;20.92;48.74
69247;BME280;56358;56.328;43.992;2023-08-21T08:46:17;100577.63;;;21.03;46.68
69247;BME280;56358;56.328;43.992;2023-08-21T08:48:20;100563.56;;;21.14;47.13
69247;BME280;56358;56.328;43.992;2023-08-21T08:50:21;100568.16;;;21.43;47.24
69247;BME280;56358;56.328;43.992;2023-08-21T08:52:22;100528.94;;;21.30;45.68
69247;BME280;56358;56.328;43.992;2023-08-21T08:54:26;100517.59;;;21.41;46.13
69247;BME280;56358;56.328;43.992;2023-08-21T08:56:27;100532.53;;;21.60;45.40
69247;BME280;56358;56.328;43.992;2023-08-21T08:58:29;100548.66;;;21.91;44.89
69247;BME280;56358;56.328;43.992;2023-08-21T09:00:29;100553.06;;;22.14;44.99
69247;BME280;56358;56.328;43.992;2023-08-21T09:02:30;100533.06;;;22.07;43.90
69247;BME280;56358;56.328;43.992;2023-08-21T09:04:31;100560.88;;;22.17;44.29
69247;BME280;56358;56.328;43.992;2023-08-21T09:06:32;100560.81;;;22.10;45.25
69247;BME280;56358;56.328;43.992;2023-08-21T09:08:33;100546.84;;;22.20;44.81
69247;BME280;56358;56.328;43.992;2023-08-21T09:10:39;100551.47;;;21.98;43.62
69247;BME280;56358;56.328;43.992;2023-08-21T09:12:41;100511.63;;;21.52;44.17
69247;BME280;56358;56.328;43.992;2023-08-21T09:14:43;100550.91;;;21.88;43.47
69247;BME280;56358;56.328;43.992;2023-08-21T09:17:00;100557.50;;;22.15;44.20
69247;BME280;56358;56.328;43.992;2023-08-21T09:19:04;100549.44;;;22.50;41.17
69247;BME280;56358;56.328;43.992;2023-08-21T09:21:05;100543.16;;;22.78;39.92
69247;BME280;56358;56.328;43.992;2023-08-21T09:23:06;100552.50;;;22.62;40.61
69247;BME280;56358;56.328;43.992;2023-08-21T09:25:08;100546.09;;;23.05;39.99
69247;BME280;56358;56.328;43.992;2023-08-21T09:27:15;100547.75;;;22.99;40.00
69247;BME280;56358;56.328;43.992;2023-08-21T09:29:17;100549.09;;;22.53;41.28
69247;BME280;56358;56.328;43.992;2023-08-21T09:31:31;100541.78;;;22.17;41.13
69247;BME280;56358;56.328;43.992;2023-08-21T09:33:33;100538.56;;;21.92;42.13
69247;BME280;56358;56.328;43.992;2023-08-21T09:35:34;100539.25;;;22.16;42.49
69247;BME280;56358;56.328;43.992;2023-08-21T09:37:34;100507.25;;;22.53;40.49
69247;BME280;56358;56.328;43.992;2023-08-21T09:39:36;100526.66;;;23.21;38.87
69247;BME280;56358;56.328;43.992;2023-08-21T09:41:38;100526.69;;;23.76;37.46
69247;BME280;56358;56.328;43.992;2023-08-21T09:43:42;100537.81;;;24.37;35.29
69247;BME280;56358;56.328;43.992;2023-08-21T09:45:49;100525.19;;;24.76;34.63
69247;BME280;56358;56.328;43.992;2023-08-21T09:47:53;100520.47;;;25.17;33.78
69247;BME280;56358;56.328;43.992;2023-08-21T09:49:54;100535.72;;;25.65;33.26
69247;BME280;56358;56.328;43.992;2023-08-21T09:51:56;100538.06;;;26.00;33.07
69247;BME280;56358;56.328;43.992;2023-08-21T09:54:16;100535.72;;;26.10;33.33
69247;BME280;56358;56.328;43.992;2023-08-21T09:56:18;100530.88;;;25.67;35.00
69247;BME280;56358;56.328;43.992;2023-08-21T09:58:20;100532.47;;;25.36;35.49
69247;BME280;56358;56.328;43.992;2023-08-21T10:00:20;100539.94;;;24.88;35.41
69247;BME280;56358;56.328;43.992;2023-08-21T10:02:23;100484.25;;;24.01;36.00
69247;BME280;56358;56.328;43.992;2023-08-21T10:04:25;100547.44;;;23.99;37.45
69247;BME280;56358;56.328;43.992;2023-08-21T10:06:25;100529.59;;;23.68;37.68
69247;BME280;56358;56.328;43.992;2023-08-21T10:08:27;100524.59;;;23.79;36.20
69247;BME280;56358;56.328;43.992;2023-08-21T10:10:33;100529.38;;;24.45;34.54
69247;BME280;56358;56.328;43.992;2023-08-21T10:12:34;100519.16;;;25.26;33.82
69247;BME280;56358;56.328;43.992;2023-08-21T10:14:36;100529.44;;;26.03;32.50
69247;BME280;56358;56.328;43.992;2023-08-21T10:16:36;100525.03;;;26.59;30.87
69247;BME280;56358;56.328;43.992;2023-08-21T10:18:37;100520.91;;;27.31;30.51
69247;BME280;56358;56.328;43.992;2023-08-21T10:20:38;100528.25;;;27.74;29.96
69247;BME280;56358;56.328;43.992;2023-08-21T10:22:42;100537.50;;;28.10;29.25
69247;BME280;56358;56.328;43.992;2023-08-21T10:24:45;100529.66;;;27.95;29.02
69247;BME280;56358;56.328;43.992;2023-08-21T10:26:47;100525.06;;;27.40;30.92
69247;BME280;56358;56.328;43.992;2023-08-21T10:29:08;100521.63;;;26.57;30.48
69247;BME280;56358;56.328;43.992;2023-08-21T10:31:36;100526.41;;;25.72;31.76